Canadian Empress — VX6095 — position and weather

sailwx.info

Track history (hours):
 
Tides and Currents Weather Stations Pressure Air Temp Water Temp Dewpoint Dewpoint Depression Visibility Wind Speed Wind Dir Waves Ship Positions

Canadian Empress

Last reported at 2016-May-24 14:11 UTC. Time now 2016-May-26 18:27 UTC.
Position N 45°18' W 073°56'.

Length 30 m.

Type: Passenger vessel. MMSI: 314954012.

Date/timePositionNaut miles runAvg speedWind from/ knotsBaromVisibWave heightAir tempDewpointWater temp
2016-May-24 14:11N 45°18' W 073°56'1 2.0
2016-May-24 13:33N 45°19' W 073°55'1 0.9
2016-May-24 12:26N 45°20' W 073°55'6 7.3
2016-May-24 11:33N 45°24' W 073°47'5 4.6
2016-May-24 10:34N 45°26' W 073°42'0 0.0
2016-May-23 20:07N 45°26' W 073°42'0 0.0
2016-May-23 19:33N 45°26' W 073°42'0 0.0
2016-May-23 18:33N 45°26' W 073°42'1 1.1
2016-May-23 17:33N 45°26' W 073°43'6 6.5
2016-May-23 16:34N 45°25' W 073°52'4 3.8
2016-May-23 15:34N 45°24' W 073°58'  
2016-May-19 14:13N 45°28' W 074°07'6 9.2
2016-May-19 13:32N 45°25' W 073°59'4 3.7
2016-May-19 12:33N 45°25' W 073°54'8 7.5
2016-May-19 11:33N 45°26' W 073°43'1 0.1
2016-May-18 16:33N 45°26' W 073°42'7 7.3
2016-May-18 15:32N 45°22' W 073°50'5 4.2
2016-May-18 14:21N 45°18' W 073°56'  
2016-May-15 23:10N 44°14' W 076°26'2 1.2
2016-May-15 21:34N 44°14' W 076°29'0 0.0
2016-May-15 20:34N 44°14' W 076°29'0 0.0
2016-May-15 19:09N 44°14' W 076°29'0 0.0
2016-May-15 18:33N 44°14' W 076°29'1 1.3
2016-May-15 17:34N 44°14' W 076°27'1 0.1
2016-May-14 18:32N 44°14' W 076°29'  
Track history (hours):
 
Tides and Currents Weather Stations Pressure Air Temp Water Temp Dewpoint Dewpoint Depression Visibility Wind Speed Wind Dir Waves Ship Positions

Canadian Empress

Last reported at 2016-May-24 14:11 UTC. Time now 2016-May-26 18:27 UTC.
Position N 45°18' W 073°56'.

Length 30 m.

Type: Passenger vessel. MMSI: 314954012.

Date/timePositionNaut miles runAvg speedWind from/ knotsBaromVisibWave heightAir tempDewpointWater temp
2016-May-24 14:11N 45°18' W 073°56'1 2.0
2016-May-24 13:33N 45°19' W 073°55'1 0.9
2016-May-24 12:26N 45°20' W 073°55'6 7.3
2016-May-24 11:33N 45°24' W 073°47'5 4.6
2016-May-24 10:34N 45°26' W 073°42'0 0.0
2016-May-23 20:07N 45°26' W 073°42'0 0.0
2016-May-23 19:33N 45°26' W 073°42'0 0.0
2016-May-23 18:33N 45°26' W 073°42'1 1.1
2016-May-23 17:33N 45°26' W 073°43'6 6.5
2016-May-23 16:34N 45°25' W 073°52'4 3.8
2016-May-23 15:34N 45°24' W 073°58'  
2016-May-19 14:13N 45°28' W 074°07'6 9.2
2016-May-19 13:32N 45°25' W 073°59'4 3.7
2016-May-19 12:33N 45°25' W 073°54'8 7.5
2016-May-19 11:33N 45°26' W 073°43'1 0.1
2016-May-18 16:33N 45°26' W 073°42'7 7.3
2016-May-18 15:32N 45°22' W 073°50'5 4.2
2016-May-18 14:21N 45°18' W 073°56'  
2016-May-15 23:10N 44°14' W 076°26'2 1.2
2016-May-15 21:34N 44°14' W 076°29'0 0.0
2016-May-15 20:34N 44°14' W 076°29'0 0.0
2016-May-15 19:09N 44°14' W 076°29'0 0.0
2016-May-15 18:33N 44°14' W 076°29'1 1.3
2016-May-15 17:34N 44°14' W 076°27'1 0.1
2016-May-14 18:32N 44°14' W 076°29'  

Dump ship's entire track history